Macel, Mississippi
Current Conditions -  °F | °C
As of 6:53 AM on Wednesday 22 Oct 2014 (Local Time) from KGWO Reporting Station
Clear Clear  
Wind Chill: 52°   Ceiling: Unl
Heat Index: 52°   Visibility: 10mi
Dew Point: 48°   Wind: 8mph
Humidity: 86%   Direction: 70°ENE
Pressure: 30.14"   Gusts: NA
Location:  33.7588°N, 90.1752°W
Report Text: KGWO 221153Z AUTO 07007KT 10SM CLR 11/09 A3014 RMK AO2 SLP207 T01110089 10117 20094 53015 TSNO
Loading
Personal Weather Stations






























Interactive Weather Map
Tropical Storm Tracking
New forecast layout! Learn more

10-Day Weather Forecast

Advertisements
Track Severe Weather on mobile